Observation data for Tulia on 02/17/2018      Previous  Date  Next       Current Mesonet Observations  Soil Data  Daily Summary Page  Observations in Plain Language
KTIS 170600Z 22012KT 02/02 A301 RMK A01 T00240021  RH  099%=      5-min Rain = 0.01
KTIS 170605Z 21013KT 02/02 A3009 RMK A01 T00240022  RH  100%=      5-min Rain = 0.01
KTIS 170610Z 20015G20KT 02/02 A3009 RMK A01 T00240022  RH  100%=      5-min Rain = 0.01
KTIS 170615Z 20016KT 02/02 A3008 RMK A01 T00240023  RH  100%=      5-min Rain = 0.01
KTIS 170620Z 21015KT 02/02 A3008 RMK A01 T00240023  RH  100%=      5-min Rain = 0.01
KTIS 170625Z 20015KT 02/02 A3007 RMK A01 T00240023  RH  100%=      5-min Rain = 0.01
KTIS 170630Z 20014KT 03/02 A3006 RMK A01 T00250023  RH  100%=      5-min Rain = 0.01
KTIS 170635Z 20016KT 03/02 A3006 RMK A01 T00250023  RH  100%=      5-min Rain = 0.01
KTIS 170640Z 21015KT 03/02 A3006 RMK A01 T00260024  RH  100%=      5-min Rain = 0
KTIS 170645Z 20016KT 03/02 A3005 RMK A01 T00260024  RH  100%=      5-min Rain = 0
KTIS 170650Z 20016G22KT 03/02 A3004 RMK A01 T00260024  RH  100%=      5-min Rain = 0
KTIS 170655Z 20016G21KT 03/02 A3003 RMK A01 T00260024  RH  100%=      5-min Rain = 0
KTIS 170700Z 20016G22KT 03/03 A3003 RMK A01 T00260025  RH  100%=      5-min Rain = 0
KTIS 170705Z 20016KT 03/03 A3002 RMK A01 T00260025  RH  100%=      5-min Rain = 0
KTIS 170710Z 20016G21KT 03/03 A3002 RMK A01 T00270025  RH  100%=      5-min Rain = 0
KTIS 170715Z 21015KT 03/03 A3001 RMK A01 T00270025  RH  100%=      5-min Rain = 0
KTIS 170720Z 21015KT 03/03 A3001 RMK A01 T00270025  RH  100%=      5-min Rain = 0
KTIS 170725Z 21014KT 03/03 A3001 RMK A01 T00280026  RH  100%=      5-min Rain = 0
KTIS 170730Z 22015KT 03/03 A30 RMK A01 T00280026  RH  100%=      5-min Rain = 0
KTIS 170735Z 22015KT 03/03 A30 RMK A01 T00280026  RH  100%=      5-min Rain = 0
KTIS 170740Z 22015KT 03/03 A30 RMK A01 T00280027  RH  100%=      5-min Rain = 0
KTIS 170745Z 22014KT 03/03 A30 RMK A01 T00290027  RH  100%=      5-min Rain = 0
KTIS 170750Z 21016KT 03/03 A2999 RMK A01 T00290027  RH  100%=      5-min Rain = 0
KTIS 170755Z 21017KT 03/03 A30 RMK A01 T00300028  RH  100%=      5-min Rain = 0
KTIS 170800Z 22017KT 03/03 A30 RMK A01 T00300028  RH  100%=      5-min Rain = 0
KTIS 170805Z 21018KT 03/03 A30 RMK A01 T00310029  RH  100%=      5-min Rain = 0
KTIS 170810Z 21018G24KT 03/03 A2999 RMK A01 T00310029  RH  100%=      5-min Rain = 0
KTIS 170815Z 22018KT 03/03 A30 RMK A01 T00310029  RH  100%=      5-min Rain = 0
KTIS 170820Z 22017G23KT 03/03 A30 RMK A01 T00310029  RH  100%=      5-min Rain = 0
KTIS 170825Z 22015G20KT 03/03 A30 RMK A01 T00310029  RH  100%=      5-min Rain = 0
KTIS 170830Z 22016G21KT 03/03 A30 RMK A01 T00300029  RH  100%=      5-min Rain = 0
KTIS 170835Z 22017G22KT 03/03 A2998 RMK A01 T00310029  RH  100%=      5-min Rain = 0
KTIS 170840Z 22018KT 03/03 A2998 RMK A01 T00310029  RH  100%=      5-min Rain = 0
KTIS 170845Z 22018G23KT 03/03 A2998 RMK A01 T00310029  RH  100%=      5-min Rain = 0
KTIS 170850Z 22019KT 03/03 A2998 RMK A01 T00310029  RH  100%=      5-min Rain = 0
KTIS 170855Z 22019KT 03/03 A2997 RMK A01 T00310030  RH  100%=      5-min Rain = 0
KTIS 170900Z 22017KT 03/03 A2997 RMK A01 T00310030  RH  100%=      5-min Rain = 0
KTIS 170905Z 23015KT 03/03 A2997 RMK A01 T00320030  RH  100%=      5-min Rain = 0
KTIS 170910Z 23016G22KT 03/03 A2997 RMK A01 T00320030  RH  100%=      5-min Rain = 0
KTIS 170915Z 23017G22KT 03/03 A2997 RMK A01 T00320031  RH  100%=      5-min Rain = 0
KTIS 170920Z 22017G22KT 03/03 A2997 RMK A01 T00330031  RH  100%=      5-min Rain = 0
KTIS 170925Z 22018KT 03/03 A2996 RMK A01 T00330031  RH  100%=      5-min Rain = 0
KTIS 170930Z 23017G22KT 03/03 A2996 RMK A01 T00330031  RH  100%=      5-min Rain = 0
KTIS 170935Z 23016KT 03/03 A2997 RMK A01 T00330031  RH  100%=      5-min Rain = 0
KTIS 170940Z 22016KT 03/03 A2996 RMK A01 T00330031  RH  100%=      5-min Rain = 0
KTIS 170945Z 22017KT 03/03 A2996 RMK A01 T00330031  RH  100%=      5-min Rain = 0
KTIS 170950Z 22016KT 03/03 A2995 RMK A01 T00330031  RH  100%=      5-min Rain = 0
KTIS 170955Z 22014KT 03/03 A2996 RMK A01 T00330031  RH  100%=      5-min Rain = 0
KTIS 171000Z 23014G19KT 03/03 A2996 RMK A01 T00330030  RH  099%=      5-min Rain = 0
KTIS 171005Z 23015KT 03/03 A2996 RMK A01 T00330030  RH  099%=      5-min Rain = 0
KTIS 171010Z 23016G21KT 03/03 A2996 RMK A01 T00330030  RH  099%=      5-min Rain = 0
KTIS 171015Z 24015G20KT 03/03 A2996 RMK A01 T00330030  RH  099%=      5-min Rain = 0
KTIS 171020Z 23015G20KT 03/03 A2996 RMK A01 T00340030  RH  099%=      5-min Rain = 0
KTIS 171025Z 24013KT 04/03 A2997 RMK A01 T00350031  RH  099%=      5-min Rain = 0
KTIS 171030Z 24012KT 04/03 A2997 RMK A01 T00350030  RH  098%=      5-min Rain = 0
KTIS 171035Z 25013KT 03/03 A2997 RMK A01 T00340030  RH  098%=      5-min Rain = 0
KTIS 171040Z 25012KT 04/03 A2997 RMK A01 T00350031  RH  098%=      5-min Rain = 0
KTIS 171045Z 24013KT 04/03 A2997 RMK A01 T00350030  RH  098%=      5-min Rain = 0
KTIS 171050Z 24013KT 04/03 A2996 RMK A01 T00360030  RH  097%=      5-min Rain = 0
KTIS 171055Z 24014KT 04/03 A2996 RMK A01 T00360030  RH  097%=      5-min Rain = 0
KTIS 171100Z 24012KT 04/03 A2996 RMK A01 T00350030  RH  097%=      5-min Rain = 0
KTIS 171105Z 25013G18KT 04/03 A2996 RMK A01 T00350030  RH  098%=      5-min Rain = 0
KTIS 171110Z 23015G20KT 04/03 A2995 RMK A01 T00360031  RH  097%=      5-min Rain = 0
KTIS 171115Z 23014KT 04/03 A2995 RMK A01 T00360030  RH  097%=      5-min Rain = 0
KTIS 171120Z 24014KT 04/03 A2995 RMK A01 T00360031  RH  097%=      5-min Rain = 0
KTIS 171125Z 24014KT 04/03 A2995 RMK A01 T00360031  RH  097%=      5-min Rain = 0
KTIS 171130Z 23016KT 04/03 A2995 RMK A01 T00360031  RH  098%=      5-min Rain = 0
KTIS 171135Z 23015KT 04/03 A2995 RMK A01 T00360031  RH  098%=      5-min Rain = 0
KTIS 171140Z 24013G18KT 04/03 A2995 RMK A01 T00360031  RH  097%=      5-min Rain = 0
KTIS 171145Z 24013KT 04/03 A2995 RMK A01 T00360031  RH  097%=      5-min Rain = 0
KTIS 171150Z 24014KT 04/03 A2995 RMK A01 T00370031  RH  097%=      5-min Rain = 0
KTIS 171155Z 24014G19KT 04/03 A2996 RMK A01 T00370031  RH  097%=      5-min Rain = 0
KTIS 171200Z 24014G19KT 04/03 A2996 RMK A01 T00380031  RH  096%=      5-min Rain = 0
KTIS 171205Z 24013KT 04/03 A2996 RMK A01 T00380031  RH  096%=      5-min Rain = 0
KTIS 171210Z 25013KT 04/03 A2997 RMK A01 T00380031  RH  096%=      5-min Rain = 0
KTIS 171215Z 24015KT 04/03 A2997 RMK A01 T00380031  RH  096%=      5-min Rain = 0
KTIS 171220Z 24015KT 04/03 A2996 RMK A01 T00380031  RH  096%=      5-min Rain = 0
KTIS 171225Z 24015KT 04/03 A2996 RMK A01 T00380031  RH  096%=      5-min Rain = 0
KTIS 171230Z 24017KT 04/03 A2996 RMK A01 T00380031  RH  096%=      5-min Rain = 0
KTIS 171235Z 25015KT 04/03 A2997 RMK A01 T00380031  RH  096%=      5-min Rain = 0
KTIS 171240Z 25013G18KT 04/03 A2998 RMK A01 T00390031  RH  096%=      5-min Rain = 0
KTIS 171245Z 25012KT 04/03 A2998 RMK A01 T00380031  RH  096%=      5-min Rain = 0
KTIS 171250Z 25012KT 04/03 A2998 RMK A01 T00380031  RH  096%=      5-min Rain = 0
KTIS 171255Z 25009KT 04/03 A2999 RMK A01 T00380030  RH  096%=      5-min Rain = 0
KTIS 171300Z 26009KT 04/03 A2999 RMK A01 T00370030  RH  097%=      5-min Rain = 0
KTIS 171305Z 25011KT 04/03 A2999 RMK A01 T00380031  RH  096%=      5-min Rain = 0
KTIS 171310Z 27008KT 04/03 A30 RMK A01 T00370030  RH  097%=      5-min Rain = 0
KTIS 171315Z 26009KT 04/03 A30 RMK A01 T00370030  RH  096%=      5-min Rain = 0
KTIS 171320Z 27007KT 04/03 A3001 RMK A01 T00370030  RH  096%=      5-min Rain = 0
KTIS 171325Z 26008KT 04/03 A3001 RMK A01 T00360029  RH  096%=      5-min Rain = 0
KTIS 171330Z 26007KT 03/03 A3001 RMK A01 T00340027  RH  097%=      5-min Rain = 0
KTIS 171335Z 27006KT 03/03 A3002 RMK A01 T00330027  RH  097%=      5-min Rain = 0
KTIS 171340Z 26008KT 03/03 A3002 RMK A01 T00320027  RH  097%=      5-min Rain = 0
KTIS 171345Z 26009KT 03/03 A3002 RMK A01 T00320027  RH  098%=      5-min Rain = 0
KTIS 171350Z 26010KT 03/03 A3002 RMK A01 T00330028  RH  098%=      5-min Rain = 0
KTIS 171355Z 26010KT 03/03 A3002 RMK A01 T00340028  RH  098%=      5-min Rain = 0
KTIS 171400Z 26010KT 04/03 A3002 RMK A01 T00350029  RH  098%=      5-min Rain = 0
KTIS 171405Z 27009KT 04/03 A3003 RMK A01 T00360030  RH  097%=      5-min Rain = 0
KTIS 171410Z 28010KT 04/03 A3003 RMK A01 T00350028  RH  097%=      5-min Rain = 0
KTIS 171415Z 28009KT 03/03 A3004 RMK A01 T00320027  RH  097%=      5-min Rain = 0
KTIS 171420Z 29008KT 03/03 A3004 RMK A01 T00310026  RH  098%=      5-min Rain = 0
KTIS 171425Z 29007KT 03/03 A3005 RMK A01 T00310026  RH  098%=      5-min Rain = 0
KTIS 171430Z 29008KT 03/03 A3005 RMK A01 T00300026  RH  098%=      5-min Rain = 0
KTIS 171435Z 30007KT 03/03 A3006 RMK A01 T00300027  RH  099%=      5-min Rain = 0
KTIS 171440Z 29006KT 03/03 A3006 RMK A01 T00300027  RH  099%=      5-min Rain = 0
KTIS 171445Z 29007KT 03/03 A3006 RMK A01 T00300026  RH  099%=      5-min Rain = 0
KTIS 171450Z 29007KT 03/03 A3007 RMK A01 T00300027  RH  099%=      5-min Rain = 0
KTIS 171455Z 29008KT 03/03 A3007 RMK A01 T00330030  RH  099%=      5-min Rain = 0
KTIS 171500Z 29008KT 04/03 A3008 RMK A01 T00350032  RH  099%=      5-min Rain = 0
KTIS 171505Z 29008KT 04/04 A3008 RMK A01 T00390035  RH  099%=      5-min Rain = 0
KTIS 171510Z 29008KT 04/04 A3009 RMK A01 T00440039  RH  098%=      5-min Rain = 0
KTIS 171515Z 29008KT 05/04 A3009 RMK A01 T00480042  RH  097%=      5-min Rain = 0
KTIS 171520Z 30009KT 05/05 A301 RMK A01 T00520045  RH  096%=      5-min Rain = 0
KTIS 171525Z 30009KT 06/05 A301 RMK A01 T00560046  RH  095%=      5-min Rain = 0
KTIS 171530Z 31010KT 06/05 A3011 RMK A01 T00590047  RH  093%=      5-min Rain = 0
KTIS 171535Z 31011KT 06/05 A3011 RMK A01 T00630048  RH  092%=      5-min Rain = 0
KTIS 171540Z 32011KT 07/05 A3011 RMK A01 T00660050  RH  091%=      5-min Rain = 0
KTIS 171545Z 33011KT 07/05 A3012 RMK A01 T00690052  RH  090%=      5-min Rain = 0
KTIS 171550Z 34014KT 07/05 A3012 RMK A01 T00730052  RH  088%=      5-min Rain = 0
KTIS 171555Z 35016KT 08/05 A3012 RMK A01 T00750051  RH  086%=      5-min Rain = 0
KTIS 171600Z 36015KT 08/05 A3012 RMK A01 T00760049  RH  084%=      5-min Rain = 0
KTIS 171605Z 00014KT 08/05 A3013 RMK A01 T00780046  RH  082%=      5-min Rain = 0
KTIS 171610Z 00013KT 08/05 A3013 RMK A01 T00790046  RH  080%=      5-min Rain = 0
KTIS 171615Z 02014G19KT 08/04 A3013 RMK A01 T00800037  RH  075%=      5-min Rain = 0
KTIS 171620Z 02014G22KT 08/03 A3013 RMK A01 T00830034  RH  072%=      5-min Rain = 0
KTIS 171625Z 02018G24KT 08/02 A3013 RMK A01 T00840022  RH  066%=      5-min Rain = 0
KTIS 171630Z 03016G22KT 09/03 A3014 RMK A01 T00860028  RH  068%=      5-min Rain = 0
KTIS 171635Z 03018G24KT 09/03 A3014 RMK A01 T00880025  RH  065%=      5-min Rain = 0
KTIS 171640Z 04020G26KT 09/02 A3014 RMK A01 T00880020  RH  063%=      5-min Rain = 0
KTIS 171645Z 03017G24KT 09/02 A3014 RMK A01 T00890021  RH  063%=      5-min Rain = 0
KTIS 171650Z 03018G24KT 09/02 A3015 RMK A01 T00910020  RH  062%=      5-min Rain = 0
KTIS 171655Z 03017G23KT 09/02 A3015 RMK A01 T00920018  RH  061%=      5-min Rain = 0
KTIS 171700Z 04015G20KT 09/02 A3015 RMK A01 T00940023  RH  062%=      5-min Rain = 0
KTIS 171705Z 04017G25KT 09/02 A3015 RMK A01 T00930016  RH  059%=      5-min Rain = 0
KTIS 171710Z 04018G24KT 09/02 A3016 RMK A01 T00940015  RH  058%=      5-min Rain = 0
KTIS 171715Z 04017G22KT 09/01 A3016 RMK A01 T00920011  RH  058%=      5-min Rain = 0
KTIS 171720Z 03017G22KT 09/01 A3016 RMK A01 T00930009  RH  056%=      5-min Rain = 0
KTIS 171725Z 04017KT 10/01 A3016 RMK A01 T00950012  RH  057%=      5-min Rain = 0
KTIS 171730Z 04019G24KT 10/01 A3016 RMK A01 T00960011  RH  056%=      5-min Rain = 0
KTIS 171735Z 04020KT 09/00 A3016 RMK A01 T00940004  RH  054%=      5-min Rain = 0
KTIS 171740Z 04016KT 10/01 A3017 RMK A01 T00950010  RH  056%=      5-min Rain = 0
KTIS 171745Z 04017G22KT 10/01 A3017 RMK A01 T00950008  RH  056%=      5-min Rain = 0
KTIS 171750Z 04018G23KT 10/01 A3017 RMK A01 T00970009  RH  055%=      5-min Rain = 0
KTIS 171755Z 04016G22KT 10/01 A3017 RMK A01 T01000008  RH  054%=      5-min Rain = 0
KTIS 171800Z 04016G21KT 10/01 A3017 RMK A01 T01010009  RH  053%=      5-min Rain = 0
KTIS 171805Z 05018KT 10/01 A3017 RMK A01 T01010006  RH  052%=      5-min Rain = 0
KTIS 171810Z 04016G21KT 10/01 A3017 RMK A01 T01000005  RH  052%=      5-min Rain = 0
KTIS 171815Z 04017G22KT 10/00 A3017 RMK A01 T01010002  RH  051%=      5-min Rain = 0
KTIS 171820Z 04016G23KT 10/00 A3017 RMK A01 T01010002  RH  051%=      5-min Rain = 0
KTIS 171825Z 04016G21KT 10/00 A3017 RMK A01 T01020004  RH  051%=      5-min Rain = 0
KTIS 171830Z 05016KT 10/M00 A3017 RMK A01 T01021002  RH  049%=      5-min Rain = 0
KTIS 171835Z 04014G20KT 10/M00 A3017 RMK A01 T01031001  RH  049%=      5-min Rain = 0
KTIS 171840Z 04014G21KT 11/00 A3017 RMK A01 T01060004  RH  050%=      5-min Rain = 0
KTIS 171845Z 03015KT 11/M01 A3018 RMK A01 T01051006  RH  047%=      5-min Rain = 0
KTIS 171850Z 02014G19KT 10/M01 A3018 RMK A01 T01041010  RH  046%=      5-min Rain = 0
KTIS 171855Z 05016G21KT 11/M01 A3018 RMK A01 T01081006  RH  046%=      5-min Rain = 0
KTIS 171900Z 04016KT 11/M01 A3017 RMK A01 T01101010  RH  044%=      5-min Rain = 0
KTIS 171905Z 04017KT 11/M01 A3018 RMK A01 T01091012  RH  043%=      5-min Rain = 0
KTIS 171910Z 04014G19KT 11/M01 A3018 RMK A01 T01071014  RH  043%=      5-min Rain = 0
KTIS 171915Z 04014G19KT 11/M02 A3018 RMK A01 T01071015  RH  043%=      5-min Rain = 0
KTIS 171920Z 05014KT 11/M02 A3018 RMK A01 T01071016  RH  043%=      5-min Rain = 0
KTIS 171925Z 03014G19KT 11/M03 A3018 RMK A01 T01061026  RH  040%=      5-min Rain = 0
KTIS 171930Z 04013KT 11/M03 A3018 RMK A01 T01061025  RH  040%=      5-min Rain = 0
KTIS 171935Z 04013KT 11/M02 A3017 RMK A01 T01091024  RH  040%=      5-min Rain = 0
KTIS 171940Z 03011KT 11/M03 A3017 RMK A01 T01111025  RH  039%=      5-min Rain = 0
KTIS 171945Z 04013KT 11/M02 A3017 RMK A01 T01141024  RH  038%=      5-min Rain = 0
KTIS 171950Z 05013G18KT 12/M02 A3017 RMK A01 T01171024  RH  038%=      5-min Rain = 0
KTIS 171955Z 04014KT 12/M02 A3017 RMK A01 T01171022  RH  038%=      5-min Rain = 0
KTIS 172000Z 03011G18KT 12/M03 A3017 RMK A01 T01161032  RH  036%=      5-min Rain = 0
KTIS 172005Z 04012G17KT 12/M03 A3017 RMK A01 T01181031  RH  035%=      5-min Rain = 0
KTIS 172010Z 04010KT 12/M03 A3017 RMK A01 T01181028  RH  036%=      5-min Rain = 0
KTIS 172015Z 05011KT 12/M03 A3017 RMK A01 T01201028  RH  036%=      5-min Rain = 0
KTIS 172020Z 04009KT 12/M03 A3017 RMK A01 T01201033  RH  034%=      5-min Rain = 0
KTIS 172025Z 06011KT 12/M03 A3017 RMK A01 T01211028  RH  036%=      5-min Rain = 0
KTIS 172030Z 04011KT 12/M03 A3017 RMK A01 T01211030  RH  035%=      5-min Rain = 0
KTIS 172035Z 04009KT 12/M02 A3017 RMK A01 T01241024  RH  036%=      5-min Rain = 0
KTIS 172040Z 06011KT 13/M04 A3017 RMK A01 T01261035  RH  033%=      5-min Rain = 0
KTIS 172045Z 06012G17KT 12/M04 A3017 RMK A01 T01231037  RH  033%=      5-min Rain = 0
KTIS 172050Z 06009KT 13/M03 A3017 RMK A01 T01301025  RH  034%=      5-min Rain = 0
KTIS 172055Z 05009G18KT 13/M04 A3016 RMK A01 T01301035  RH  032%=      5-min Rain = 0
KTIS 172100Z 07010KT 13/M04 A3017 RMK A01 T01261036  RH  032%=      5-min Rain = 0
KTIS 172105Z 07008G13KT 13/M04 A3016 RMK A01 T01261038  RH  032%=      5-min Rain = 0
KTIS 172110Z 07011KT 13/M04 A3016 RMK A01 T01271039  RH  032%=      5-min Rain = 0
KTIS 172115Z 07009G14KT 13/M04 A3016 RMK A01 T01271040  RH  032%=      5-min Rain = 0
KTIS 172120Z 08011G18KT 13/M03 A3016 RMK A01 T01291034  RH  032%=      5-min Rain = 0
KTIS 172125Z 07009KT 13/M04 A3016 RMK A01 T01291038  RH  031%=      5-min Rain = 0.01
KTIS 172130Z 06010G15KT 13/M04 A3016 RMK A01 T01301038  RH  031%=      5-min Rain = 0
KTIS 172135Z 07009G15KT 13/M04 A3016 RMK A01 T01281042  RH  031%=      5-min Rain = 0
KTIS 172140Z 07009KT 13/M04 A3016 RMK A01 T01301037  RH  031%=      5-min Rain = 0
KTIS 172145Z 08008KT 13/M04 A3016 RMK A01 T01271040  RH  031%=      5-min Rain = 0
KTIS 172150Z 10009KT 13/M04 A3016 RMK A01 T01271036  RH  032%=      5-min Rain = 0
KTIS 172155Z 08008KT 13/M04 A3017 RMK A01 T01281038  RH  032%=      5-min Rain = 0
KTIS 172200Z 08007G13KT 12/M04 A3017 RMK A01 T01241042  RH  031%=      5-min Rain = 0
KTIS 172205Z 09008KT 12/M04 A3017 RMK A01 T01241039  RH  032%=      5-min Rain = 0
KTIS 172210Z 12009KT 13/M04 A3017 RMK A01 T01251036  RH  033%=      5-min Rain = 0
KTIS 172215Z 11008KT 13/M04 A3017 RMK A01 T01271035  RH  033%=      5-min Rain = 0
KTIS 172220Z 10008KT 13/M03 A3017 RMK A01 T01281031  RH  033%=      5-min Rain = 0
KTIS 172225Z 11008KT 13/M03 A3017 RMK A01 T01291034  RH  032%=      5-min Rain = 0
KTIS 172230Z 11009KT 13/M03 A3017 RMK A01 T01281033  RH  033%=      5-min Rain = 0
KTIS 172235Z 10008KT 12/M03 A3017 RMK A01 T01231034  RH  034%=      5-min Rain = 0
KTIS 172240Z 11007KT 12/M03 A3017 RMK A01 T01221030  RH  035%=      5-min Rain = 0
KTIS 172245Z 10008KT 12/M04 A3017 RMK A01 T01241035  RH  033%=      5-min Rain = 0
KTIS 172250Z 12008KT 13/M03 A3017 RMK A01 T01251032  RH  034%=      5-min Rain = 0
KTIS 172255Z 12009KT 13/M03 A3016 RMK A01 T01251030  RH  034%=      5-min Rain = 0
KTIS 172300Z 13009KT 12/M03 A3017 RMK A01 T01231031  RH  034%=      5-min Rain = 0
KTIS 172305Z 12009KT 12/M03 A3017 RMK A01 T01231029  RH  035%=      5-min Rain = 0
KTIS 172310Z 12008KT 12/M03 A3017 RMK A01 T01211028  RH  036%=      5-min Rain = 0
KTIS 172315Z 12009KT 12/M03 A3017 RMK A01 T01211025  RH  036%=      5-min Rain = 0
KTIS 172320Z 12009KT 12/M03 A3017 RMK A01 T01191028  RH  036%=      5-min Rain = 0
KTIS 172325Z 13010KT 12/M03 A3017 RMK A01 T01191027  RH  036%=      5-min Rain = 0
KTIS 172330Z 12009KT 12/M03 A3017 RMK A01 T01171025  RH  038%=      5-min Rain = 0
KTIS 172335Z 12009KT 12/M02 A3017 RMK A01 T01161021  RH  039%=      5-min Rain = 0
KTIS 172340Z 12008KT 12/M02 A3017 RMK A01 T01151021  RH  039%=      5-min Rain = 0
KTIS 172345Z 12009KT 11/M02 A3017 RMK A01 T01121023  RH  039%=      5-min Rain = 0
KTIS 172350Z 12007KT 11/M02 A3017 RMK A01 T01111021  RH  040%=      5-min Rain = 0
KTIS 172355Z 13008KT 11/M02 A3017 RMK A01 T01091015  RH  042%=      5-min Rain = 0
KTIS 180000Z 13009KT 11/M02 A3018 RMK A01 T01071018  RH  042%=      5-min Rain = 0
KTIS 180005Z 13009KT 11/M02 A3018 RMK A01 T01051015  RH  044%=      5-min Rain = 0
KTIS 180010Z 13008KT 10/M01 A3017 RMK A01 T01001013  RH  046%=      5-min Rain = 0
KTIS 180015Z 13008KT 10/M01 A3018 RMK A01 T00961014  RH  047%=      5-min Rain = 0
KTIS 180020Z 13008KT 09/M01 A3017 RMK A01 T00921012  RH  048%=      5-min Rain = 0
KTIS 180025Z 13007KT 09/M01 A3017 RMK A01 T00871009  RH  051%=      5-min Rain = 0
KTIS 180030Z 14007KT 08/M01 A3017 RMK A01 T00811006  RH  055%=      5-min Rain = 0
KTIS 180035Z 14007KT 08/M01 A3017 RMK A01 T00761005  RH  057%=      5-min Rain = 0
KTIS 180040Z 14007KT 07/M00 A3018 RMK A01 T00701004  RH  060%=      5-min Rain = 0
KTIS 180045Z 14007KT 07/M01 A3018 RMK A01 T00661005  RH  061%=      5-min Rain = 0
KTIS 180050Z 14007KT 06/M01 A3018 RMK A01 T00631006  RH  062%=      5-min Rain = 0
KTIS 180055Z 14006KT 06/M01 A3018 RMK A01 T00611007  RH  062%=      5-min Rain = 0
KTIS 180100Z 15006KT 06/M01 A3018 RMK A01 T00591007  RH  063%=      5-min Rain = 0
KTIS 180105Z 15006KT 06/M01 A3018 RMK A01 T00581008  RH  063%=      5-min Rain = 0
KTIS 180110Z 15006KT 06/M01 A3019 RMK A01 T00581009  RH  063%=      5-min Rain = 0
KTIS 180115Z 15007KT 06/M01 A3019 RMK A01 T00551009  RH  064%=      5-min Rain = 0
KTIS 180120Z 15007KT 05/M01 A3019 RMK A01 T00511008  RH  066%=      5-min Rain = 0
KTIS 180125Z 15007KT 05/M01 A3019 RMK A01 T00491008  RH  067%=      5-min Rain = 0
KTIS 180130Z 15008KT 05/M01 A3019 RMK A01 T00501008  RH  067%=      5-min Rain = 0
KTIS 180135Z 15007KT 05/M01 A3019 RMK A01 T00471007  RH  069%=      5-min Rain = 0
KTIS 180140Z 15007KT 05/M01 A3019 RMK A01 T00461006  RH  070%=      5-min Rain = 0
KTIS 180145Z 16007KT 05/M01 A3019 RMK A01 T00451006  RH  070%=      5-min Rain = 0
KTIS 180150Z 16007KT 05/M01 A3019 RMK A01 T00451005  RH  071%=      5-min Rain = 0
KTIS 180155Z 16007KT 04/M01 A3019 RMK A01 T00441005  RH  071%=      5-min Rain = 0
KTIS 180200Z 16007KT 04/M01 A3019 RMK A01 T00421006  RH  072%=      5-min Rain = 0
KTIS 180205Z 15007KT 04/M01 A3019 RMK A01 T00421006  RH  072%=      5-min Rain = 0
KTIS 180210Z 16007KT 04/M01 A3019 RMK A01 T00421005  RH  072%=      5-min Rain = 0
KTIS 180215Z 15008KT 04/M01 A302 RMK A01 T00411005  RH  073%=      5-min Rain = 0
KTIS 180220Z 15008KT 04/M01 A302 RMK A01 T00401005  RH  073%=      5-min Rain = 0
KTIS 180225Z 16007KT 04/M01 A302 RMK A01 T00391005  RH  074%=      5-min Rain = 0
KTIS 180230Z 16008KT 04/M01 A302 RMK A01 T00381006  RH  074%=      5-min Rain = 0
KTIS 180235Z 15008KT 04/M01 A302 RMK A01 T00371007  RH  074%=      5-min Rain = 0
KTIS 180240Z 15008KT 04/M01 A302 RMK A01 T00361008  RH  074%=      5-min Rain = 0
KTIS 180245Z 15007KT 04/M01 A302 RMK A01 T00361008  RH  074%=      5-min Rain = 0
KTIS 180250Z 16007KT 03/M01 A3019 RMK A01 T00341008  RH  075%=      5-min Rain = 0
KTIS 180255Z 16008KT 03/M01 A3019 RMK A01 T00341008  RH  075%=      5-min Rain = 0
KTIS 180300Z 16008KT 03/M01 A3019 RMK A01 T00331007  RH  076%=      5-min Rain = 0
KTIS 180305Z 16007KT 03/M01 A3019 RMK A01 T00311007  RH  077%=      5-min Rain = 0
KTIS 180310Z 16007KT 03/M01 A3019 RMK A01 T00301009  RH  076%=      5-min Rain = 0
KTIS 180315Z 16007KT 03/M01 A3019 RMK A01 T00301011  RH  075%=      5-min Rain = 0
KTIS 180320Z 16008KT 03/M01 A3019 RMK A01 T00301012  RH  075%=      5-min Rain = 0
KTIS 180325Z 16007KT 03/M01 A3019 RMK A01 T00301011  RH  075%=      5-min Rain = 0
KTIS 180330Z 16008KT 03/M01 A3019 RMK A01 T00301012  RH  075%=      5-min Rain = 0
KTIS 180335Z 16008KT 03/M01 A3019 RMK A01 T00301011  RH  075%=      5-min Rain = 0
KTIS 180340Z 16008KT 03/M01 A3018 RMK A01 T00321012  RH  074%=      5-min Rain = 0
KTIS 180345Z 16008KT 03/M01 A3018 RMK A01 T00321011  RH  074%=      5-min Rain = 0
KTIS 180350Z 16008KT 03/M01 A3018 RMK A01 T00311012  RH  074%=      5-min Rain = 0
KTIS 180355Z 16007KT 03/M01 A3018 RMK A01 T00291012  RH  075%=      5-min Rain = 0
KTIS 180400Z 16007KT 03/M01 A3018 RMK A01 T00251013  RH  077%=      5-min Rain = 0
KTIS 180405Z 16007KT 02/M01 A3018 RMK A01 T00211013  RH  079%=      5-min Rain = 0
KTIS 180410Z 16007KT 02/M01 A3018 RMK A01 T00221011  RH  080%=      5-min Rain = 0
KTIS 180415Z 16006KT 02/M01 A3018 RMK A01 T00221012  RH  079%=      5-min Rain = 0
KTIS 180420Z 16006KT 02/M01 A3018 RMK A01 T00211012  RH  080%=      5-min Rain = 0
KTIS 180425Z 16007KT 02/M01 A3018 RMK A01 T00201012  RH  080%=      5-min Rain = 0
KTIS 180430Z 16007KT 02/M01 A3018 RMK A01 T00201013  RH  080%=      5-min Rain = 0
KTIS 180435Z 16008KT 02/M01 A3018 RMK A01 T00191013  RH  080%=      5-min Rain = 0
KTIS 180440Z 16008KT 02/M01 A3018 RMK A01 T00181013  RH  080%=      5-min Rain = 0
KTIS 180445Z 15008KT 02/M01 A3018 RMK A01 T00181013  RH  081%=      5-min Rain = 0
KTIS 180450Z 15008KT 02/M01 A3017 RMK A01 T00171013  RH  081%=      5-min Rain = 0
KTIS 180455Z 15008KT 02/M01 A3017 RMK A01 T00171013  RH  082%=      5-min Rain = 0
KTIS 180500Z 15009KT 02/M01 A3017 RMK A01 T00181012  RH  081%=      5-min Rain = 0
KTIS 180505Z 15008KT 02/M01 A3017 RMK A01 T00171012  RH  082%=      5-min Rain = 0
KTIS 180510Z 15008KT 02/M01 A3017 RMK A01 T00161012  RH  082%=      5-min Rain = 0
KTIS 180515Z 15007KT 02/M01 A3017 RMK A01 T00161012  RH  082%=      5-min Rain = 0
KTIS 180520Z 15008KT 02/M01 A3016 RMK A01 T00161013  RH  082%=      5-min Rain = 0
KTIS 180525Z 16008KT 02/M01 A3016 RMK A01 T00181013  RH  081%=      5-min Rain = 0
KTIS 180530Z 15008KT 02/M01 A3016 RMK A01 T00161013  RH  082%=      5-min Rain = 0
KTIS 180535Z 16008KT 02/M01 A3015 RMK A01 T00151013  RH  083%=      5-min Rain = 0
KTIS 180540Z 16009KT 01/M01 A3015 RMK A01 T00111014  RH  084%=      5-min Rain = 0
KTIS 180545Z 17008KT 01/M01 A3015 RMK A01 T00101013  RH  086%=      5-min Rain = 0
KTIS 180550Z 17009KT 01/M01 A3015 RMK A01 T00131012  RH  085%=      5-min Rain = 0
KTIS 180555Z 17009KT 02/M01 A3015 RMK A01 T00151012  RH  083%=      5-min Rain = 0

Page generated in 0.0328 seconds.